createdAt,value
2018-11-02T00:00:58.555Z,3.40
2018-11-02T00:03:27.202Z,3.03
2018-11-02T00:05:55.839Z,2.93
2018-11-02T00:08:24.870Z,3.67
2018-11-02T00:10:53.687Z,4.00
2018-11-02T00:13:22.798Z,3.87
2018-11-02T00:15:51.324Z,3.50
2018-11-02T00:18:19.802Z,2.90
2018-11-02T00:20:48.428Z,2.60
2018-11-02T00:23:17.348Z,2.90
2018-11-02T00:25:46.161Z,2.90
2018-11-02T00:28:14.764Z,3.60
2018-11-02T00:30:43.178Z,3.00
2018-11-02T00:33:11.819Z,3.65
2018-11-02T00:35:40.296Z,2.70
2018-11-02T00:38:08.735Z,3.43
2018-11-02T00:40:37.769Z,2.83
2018-11-02T00:43:06.620Z,2.63
2018-11-02T00:45:35.399Z,3.47
2018-11-02T00:48:04.026Z,3.10
2018-11-02T00:50:32.631Z,2.73
2018-11-02T00:53:01.302Z,2.60
2018-11-02T00:55:30.003Z,3.27
2018-11-02T00:57:58.525Z,3.00
2018-11-02T01:00:27.182Z,3.00
2018-11-02T01:02:55.808Z,3.50
2018-11-02T01:05:24.403Z,3.40
2018-11-02T01:07:53.042Z,3.10
2018-11-02T01:10:21.607Z,2.90
2018-11-02T01:12:50.180Z,2.90
2018-11-02T01:15:18.794Z,4.87
2018-11-02T01:17:47.457Z,4.50
2018-11-02T01:20:15.960Z,4.50
2018-11-02T01:22:44.634Z,3.70
2018-11-02T01:25:13.097Z,3.20
2018-11-02T01:27:41.761Z,3.07
2018-11-02T01:30:10.293Z,3.77
2018-11-02T01:32:38.849Z,2.53
2018-11-02T01:35:08.823Z,2.50
2018-11-02T01:37:37.385Z,2.53
2018-11-02T01:40:06.969Z,2.60
2018-11-02T01:42:35.774Z,1.90
2018-11-02T01:45:04.497Z,2.57
2018-11-02T01:47:33.025Z,2.40
2018-11-02T01:50:01.675Z,3.10
2018-11-02T01:52:30.272Z,2.83
2018-11-02T01:54:58.965Z,2.70
2018-11-02T01:57:27.647Z,2.53
2018-11-02T01:59:56.454Z,2.37
2018-11-02T02:02:24.983Z,2.23
2018-11-02T02:04:53.518Z,2.37
2018-11-02T02:07:22.196Z,2.23
2018-11-02T02:09:50.881Z,2.77
2018-11-02T02:12:19.678Z,3.03
2018-11-02T02:14:48.333Z,2.40
2018-11-02T02:17:17.048Z,2.40
2018-11-02T02:19:45.870Z,2.57
2018-11-02T02:22:14.602Z,3.20
2018-11-02T02:24:43.174Z,2.50
2018-11-02T02:27:11.879Z,2.53
2018-11-02T02:29:40.349Z,2.70
2018-11-02T02:32:09.100Z,3.05
2018-11-02T02:34:37.541Z,2.10
2018-11-02T02:37:06.172Z,2.57
2018-11-02T02:39:34.678Z,2.13
2018-11-02T02:42:03.373Z,2.70
2018-11-02T02:44:32.829Z,2.30
2018-11-02T02:47:01.380Z,2.67
2018-11-02T02:49:30.026Z,2.83
2018-11-02T02:51:58.694Z,2.60
2018-11-02T02:54:27.511Z,2.30
2018-11-02T02:56:56.101Z,2.50
2018-11-02T02:59:24.613Z,2.17
2018-11-02T03:01:53.592Z,3.07
2018-11-02T03:04:22.021Z,2.70
2018-11-02T03:06:50.641Z,2.47
2018-11-02T03:09:19.243Z,2.33
2018-11-02T03:11:47.758Z,3.37
2018-11-02T03:14:16.330Z,2.90
2018-11-02T03:16:44.995Z,3.00
2018-11-02T03:19:14.027Z,2.50
2018-11-02T03:21:42.555Z,2.50
2018-11-02T03:24:11.147Z,2.90
2018-11-02T03:26:39.929Z,2.57
2018-11-02T03:29:08.589Z,2.80
2018-11-02T03:31:37.246Z,3.00
2018-11-02T03:34:06.055Z,2.67
2018-11-02T03:36:34.558Z,2.90
2018-11-02T03:39:03.275Z,5.80
2018-11-02T03:41:31.676Z,4.50
2018-11-02T03:44:00.416Z,3.93
2018-11-02T03:46:28.930Z,3.70
2018-11-02T03:48:57.398Z,4.00
2018-11-02T03:51:25.982Z,3.77
2018-11-02T03:53:54.975Z,3.33
2018-11-02T03:56:23.387Z,3.20
2018-11-02T03:58:51.872Z,3.27
2018-11-02T04:01:20.433Z,3.40
2018-11-02T04:03:48.896Z,3.00
2018-11-02T04:06:17.367Z,3.60
2018-11-02T04:08:46.115Z,3.55
2018-11-02T04:11:14.829Z,3.20
2018-11-02T04:13:43.504Z,3.63
2018-11-02T04:16:12.125Z,3.90
2018-11-02T04:18:40.630Z,4.10
2018-11-02T04:21:09.459Z,3.63
2018-11-02T04:23:38.092Z,3.50
2018-11-02T04:26:06.885Z,3.90
2018-11-02T04:28:35.261Z,3.50
2018-11-02T04:31:04.086Z,3.70
2018-11-02T04:33:32.615Z,3.77
2018-11-02T04:36:01.171Z,3.60
2018-11-02T04:38:29.597Z,3.97
2018-11-02T04:40:58.310Z,4.20
2018-11-02T04:43:26.808Z,3.57
2018-11-02T04:45:55.602Z,3.60
2018-11-02T04:48:24.645Z,4.13
2018-11-02T04:50:53.265Z,4.30
2018-11-02T04:53:21.769Z,4.33
2018-11-02T04:55:50.365Z,4.60
2018-11-02T04:58:18.780Z,4.87
2018-11-02T05:00:47.246Z,4.93
2018-11-02T05:03:15.905Z,6.25
2018-11-02T05:05:44.514Z,5.23
2018-11-02T05:08:13.026Z,3.63
2018-11-02T05:10:41.641Z,3.90
2018-11-02T05:13:10.287Z,4.20
2018-11-02T05:15:39.095Z,4.10
2018-11-02T05:18:07.839Z,4.30
2018-11-02T05:20:36.408Z,4.73
2018-11-02T05:23:05.425Z,4.00
2018-11-02T05:25:34.279Z,3.83
2018-11-02T05:28:02.774Z,4.00
2018-11-02T05:30:31.175Z,3.80
2018-11-02T05:32:59.781Z,4.33
2018-11-02T05:35:28.242Z,4.33
2018-11-02T05:37:57.011Z,4.43
2018-11-02T05:40:25.454Z,3.60
2018-11-02T05:42:54.190Z,3.43
2018-11-02T05:45:22.760Z,4.00
2018-11-02T05:47:51.475Z,3.97
2018-11-02T05:50:20.163Z,3.30
2018-11-02T05:52:48.624Z,4.10
2018-11-02T05:55:17.206Z,7.30
2018-11-02T05:57:45.919Z,11.60
2018-11-02T06:00:14.614Z,8.97
2018-11-02T06:02:43.244Z,4.40
2018-11-02T06:05:13.413Z,4.53
2018-11-02T06:07:42.371Z,4.78
2018-11-02T06:10:11.032Z,3.43
2018-11-02T06:12:40.304Z,3.40
2018-11-02T06:15:09.358Z,3.83
2018-11-02T06:17:38.080Z,3.80
2018-11-02T06:20:13.551Z,3.80
2018-11-02T06:22:55.968Z,4.20
2018-11-02T06:36:50.995Z,5.03
2018-11-02T06:39:20.468Z,4.80
2018-11-02T06:41:49.525Z,7.93
2018-11-02T06:44:18.691Z,5.60
2018-11-02T06:46:47.694Z,4.70
2018-11-02T06:49:17.202Z,4.30
2018-11-02T06:51:46.241Z,5.40
2018-11-02T06:54:15.797Z,12.00
2018-11-02T06:56:44.880Z,4.67
2018-11-02T06:59:14.266Z,5.37
2018-11-02T07:01:43.677Z,4.80
2018-11-02T07:04:12.628Z,4.97
2018-11-02T07:39:21.621Z,9.47
2018-11-02T07:41:50.315Z,9.83
2018-11-02T07:44:19.620Z,9.27
2018-11-02T07:46:48.593Z,10.08
2018-11-02T07:49:17.212Z,9.10
2018-11-02T07:51:45.917Z,8.70
2018-11-02T07:54:14.640Z,8.50
2018-11-02T07:56:43.373Z,9.20
2018-11-02T07:59:12.414Z,8.57
2018-11-02T08:01:41.336Z,8.00
2018-11-02T08:04:10.010Z,8.57
2018-11-02T08:06:38.597Z,9.50
2018-11-02T08:09:09.942Z,13.07
2018-11-02T08:11:39.263Z,12.07
2018-11-02T08:14:08.323Z,10.57
2018-11-02T08:16:38.496Z,10.00
2018-11-02T08:19:07.645Z,11.00
2018-11-02T08:21:36.476Z,15.70
2018-11-02T08:24:05.585Z,18.67
2018-11-02T08:26:34.445Z,15.73
2018-11-02T08:29:03.232Z,14.60
2018-11-02T08:31:31.938Z,14.00
2018-11-02T08:34:00.738Z,12.07
2018-11-02T08:36:29.269Z,10.03
2018-11-02T08:38:57.968Z,10.53
2018-11-02T08:41:26.735Z,11.57
2018-11-02T08:46:50.490Z,9.33
2018-11-02T08:49:19.315Z,10.90
2018-11-02T08:51:48.128Z,9.33
2018-11-02T08:54:16.947Z,10.23
2018-11-02T08:56:45.502Z,8.15
2018-11-02T08:59:14.196Z,7.80
2018-11-02T09:01:42.654Z,7.10
2018-11-02T09:04:11.529Z,7.60
2018-11-02T09:06:40.159Z,6.37
2018-11-02T09:09:10.167Z,6.87
2018-11-02T09:11:39.379Z,6.70
2018-11-02T09:14:08.462Z,6.60
2018-11-02T09:16:37.417Z,6.70
2018-11-02T09:19:06.297Z,6.80
2018-11-02T09:21:35.297Z,9.73
2018-11-02T09:24:03.964Z,6.80
2018-11-02T09:26:32.690Z,7.10
2018-11-02T09:29:01.568Z,7.37
2018-11-02T09:31:30.268Z,6.55
2018-11-02T09:33:58.871Z,5.60
2018-11-02T09:36:27.550Z,5.43
2018-11-02T09:38:56.952Z,6.20
2018-11-02T09:41:37.786Z,6.93
2018-11-02T09:44:11.646Z,4.47
2018-11-02T09:46:41.117Z,5.93
2018-11-02T09:49:10.649Z,5.80
2018-11-02T09:51:40.513Z,5.78
2018-11-02T09:54:09.790Z,5.40
2018-11-02T09:56:39.077Z,6.57
2018-11-02T09:59:08.379Z,6.00
2018-11-02T10:01:37.691Z,6.25
2018-11-02T10:04:06.836Z,6.40
2018-11-02T10:06:36.045Z,6.23
2018-11-02T10:09:06.726Z,6.30
2018-11-02T10:16:42.589Z,8.27
2018-11-02T10:19:12.465Z,6.17
2018-11-02T10:21:41.649Z,6.63
2018-11-02T10:24:10.570Z,6.40
2018-11-02T10:26:41.449Z,7.07
2018-11-02T10:29:13.201Z,6.40
2018-11-02T10:31:42.399Z,5.73
2018-11-02T10:34:13.787Z,5.30
2018-11-02T10:36:50.292Z,5.77
2018-11-02T10:39:31.542Z,5.27
2018-11-02T10:44:50.647Z,5.57
2018-11-02T10:47:20.883Z,4.87
2018-11-02T10:49:52.371Z,6.80
2018-11-02T10:52:22.243Z,4.87
2018-11-02T10:54:51.390Z,4.17
2018-11-02T10:57:23.787Z,5.40
2018-11-02T10:59:53.904Z,3.60
2018-11-02T11:02:39.212Z,3.33
2018-11-02T11:05:10.825Z,3.43
2018-11-02T11:07:40.429Z,5.60
2018-11-02T11:10:11.679Z,4.47
2018-11-02T11:12:41.178Z,3.23
2018-11-02T11:15:11.670Z,4.10
2018-11-02T11:17:45.523Z,3.20
2018-11-02T11:20:15.150Z,3.02
2018-11-02T11:25:30.467Z,3.60
2018-11-02T11:28:14.867Z,3.20
2018-11-02T11:30:46.133Z,4.10
2018-11-02T11:33:16.827Z,3.37
2018-11-02T11:35:47.923Z,4.23
2018-11-02T11:38:19.786Z,3.60
2018-11-02T11:43:31.558Z,3.73
2018-11-02T11:46:01.485Z,3.57
2018-11-02T11:48:32.582Z,3.20
2018-11-02T11:51:01.975Z,3.10
2018-11-02T11:53:31.287Z,3.43
2018-11-02T11:56:00.874Z,4.50
2018-11-02T11:58:30.533Z,4.00
2018-11-02T12:01:03.097Z,4.90
2018-11-02T12:03:37.325Z,4.37
2018-11-02T12:06:06.613Z,4.33
2018-11-02T12:08:38.950Z,5.33
2018-11-02T12:11:08.183Z,4.60
2018-11-02T12:13:37.863Z,4.50
2018-11-02T12:16:07.840Z,4.97
2018-11-02T12:18:38.125Z,4.57
2018-11-02T12:21:15.171Z,4.20
2018-11-02T12:23:44.893Z,4.40
2018-11-02T12:26:15.062Z,4.50
2018-11-02T12:28:45.671Z,16.20
2018-11-02T12:31:15.691Z,4.37
2018-11-02T12:33:56.357Z,4.73
2018-11-02T12:36:29.846Z,5.23
2018-11-02T12:41:49.638Z,4.97
2018-11-02T12:44:25.677Z,5.17
2018-11-02T12:51:24.138Z,5.70
2018-11-02T12:53:59.588Z,4.60
2018-11-02T12:56:29.393Z,4.40
2018-11-02T12:59:10.555Z,4.50
2018-11-02T13:01:43.802Z,7.00
2018-11-02T13:04:17.642Z,4.80
2018-11-02T13:06:49.315Z,5.07
2018-11-02T13:09:18.955Z,4.47
2018-11-02T13:11:57.682Z,4.62
2018-11-02T13:14:28.332Z,5.40
2018-11-02T13:17:00.364Z,4.42
2018-11-02T13:19:51.225Z,4.33
2018-11-02T13:30:02.278Z,2.20
2018-11-02T13:32:38.149Z,2.60
2018-11-02T13:35:25.435Z,2.83
2018-11-02T14:02:45.143Z,4.50
2018-11-02T14:05:16.880Z,5.00
2018-11-02T14:07:45.820Z,4.80
2018-11-02T14:10:15.144Z,5.00
2018-11-02T14:12:44.517Z,4.10
2018-11-02T14:15:15.169Z,5.17
2018-11-02T14:17:45.372Z,5.05
2018-11-02T14:20:15.289Z,5.87
2018-11-02T14:22:50.832Z,5.33
2018-11-02T14:25:20.077Z,5.80
2018-11-02T14:27:49.479Z,5.67
2018-11-02T14:30:20.347Z,5.60
2018-11-02T14:32:49.492Z,6.00
2018-11-02T14:35:19.997Z,5.93
2018-11-02T14:37:53.982Z,6.13
2018-11-02T14:40:23.287Z,5.63
2018-11-02T14:42:52.982Z,6.13
2018-11-02T14:45:22.715Z,6.05
2018-11-02T14:47:54.839Z,6.95
2018-11-02T14:50:24.280Z,7.33
2018-11-02T14:52:54.029Z,6.90
2018-11-02T14:55:23.368Z,6.45
2018-11-02T14:57:52.914Z,5.47
2018-11-02T15:00:22.133Z,5.77
2018-11-02T15:02:51.396Z,5.97
2018-11-02T15:05:20.676Z,6.03
2018-11-02T15:07:50.047Z,6.40
2018-11-02T15:10:19.345Z,6.63
2018-11-02T15:15:44.490Z,6.17
2018-11-02T15:18:15.617Z,6.78
2018-11-02T15:20:44.964Z,6.30
2018-11-02T15:23:13.799Z,7.17
2018-11-02T15:25:42.795Z,9.60
2018-11-02T15:28:11.683Z,11.48
2018-11-02T15:30:40.601Z,8.93
2018-11-02T15:33:09.397Z,7.93
2018-11-02T15:35:38.827Z,6.90
2018-11-02T15:38:07.871Z,5.97
2018-11-02T15:40:36.879Z,6.30
2018-11-02T15:43:07.040Z,5.87
2018-11-02T15:45:36.150Z,6.63
2018-11-02T15:48:05.359Z,6.50
2018-11-02T15:50:34.456Z,7.80
2018-11-02T15:53:03.370Z,6.63
2018-11-02T15:55:32.611Z,6.47
2018-11-02T15:58:01.333Z,6.27
2018-11-02T16:00:30.432Z,6.00
2018-11-02T16:02:59.185Z,7.50
2018-11-02T16:05:27.894Z,7.47
2018-11-02T16:07:56.391Z,8.40
2018-11-02T16:10:25.749Z,15.83
2018-11-02T16:12:54.883Z,13.55
2018-11-02T16:15:24.189Z,11.97
2018-11-02T16:17:53.190Z,12.80
2018-11-02T16:20:22.681Z,12.23
2018-11-02T16:22:51.288Z,9.35
2018-11-02T16:25:20.161Z,10.10
2018-11-02T16:27:49.657Z,12.03
2018-11-02T16:30:18.489Z,10.70
2018-11-02T16:32:47.503Z,10.45
2018-11-02T16:35:16.643Z,13.03
2018-11-02T16:37:45.661Z,12.70
2018-11-02T16:40:15.787Z,11.90
2018-11-02T16:42:45.459Z,11.60
2018-11-02T16:45:15.002Z,12.30
2018-11-02T16:47:44.710Z,11.33
2018-11-02T16:50:14.943Z,9.80
2018-11-02T16:52:44.657Z,9.23
2018-11-02T16:55:13.655Z,8.73
2018-11-02T16:57:42.776Z,9.80
2018-11-02T17:00:14.302Z,6.67
2018-11-02T17:02:43.726Z,6.77
2018-11-02T17:05:13.637Z,6.70
2018-11-02T17:07:43.330Z,5.60
2018-11-02T17:10:13.443Z,10.23
2018-11-02T17:12:43.118Z,17.90
2018-11-02T17:15:12.758Z,13.90
2018-11-02T17:17:42.903Z,13.50
2018-11-02T17:20:14.597Z,9.47
2018-11-02T17:22:43.667Z,9.20
2018-11-02T17:25:12.970Z,7.67
2018-11-02T17:27:41.953Z,7.43
2018-11-02T17:30:13.335Z,13.87
2018-11-02T17:32:42.332Z,25.20
2018-11-02T17:35:12.150Z,20.40
2018-11-02T17:37:40.904Z,16.37
2018-11-02T17:40:14.274Z,8.90
2018-11-02T17:42:43.730Z,6.83
2018-11-02T17:45:12.938Z,9.10
2018-11-02T17:47:42.517Z,10.80
2018-11-02T17:50:12.789Z,10.27
2018-11-02T17:52:41.917Z,12.50
2018-11-02T17:55:10.647Z,11.70
2018-11-02T17:57:39.592Z,11.03
2018-11-02T18:00:10.022Z,14.07
2018-11-02T18:02:39.759Z,15.30
2018-11-02T18:05:09.908Z,12.30
2018-11-02T18:07:38.993Z,13.07
2018-11-02T18:10:09.662Z,12.90
2018-11-02T18:12:38.930Z,12.63
2018-11-02T18:15:08.929Z,14.30
2018-11-02T18:17:38.087Z,14.03
2018-11-02T18:20:09.584Z,12.33
2018-11-02T18:22:38.177Z,10.60
2018-11-02T18:25:07.001Z,7.63
2018-11-02T18:27:35.988Z,15.77
2018-11-02T18:30:06.151Z,13.53
2018-11-02T18:32:34.867Z,12.80
2018-11-02T18:35:03.777Z,10.80
2018-11-02T18:37:32.751Z,11.40
2018-11-02T18:40:01.439Z,13.30
2018-11-02T18:42:30.185Z,15.33
2018-11-02T18:44:59.866Z,15.40
2018-11-02T18:47:34.156Z,13.77
2018-11-02T18:50:02.937Z,17.67
2018-11-02T18:52:31.834Z,14.70
2018-11-02T18:55:00.663Z,12.95
2018-11-02T18:57:29.549Z,12.33
2018-11-02T18:59:58.406Z,12.60
2018-11-02T19:02:27.123Z,12.70
2018-11-02T19:04:55.695Z,11.80
2018-11-02T19:07:24.953Z,14.50
2018-11-02T19:09:53.852Z,17.03
2018-11-02T19:12:22.822Z,14.80
2018-11-02T19:14:51.910Z,16.60
2018-11-02T19:17:21.024Z,12.67
2018-11-02T19:19:50.074Z,12.73
2018-11-02T19:22:27.661Z,11.73
2018-11-02T19:25:02.714Z,14.07
2018-11-02T19:30:35.153Z,18.67
2018-11-02T19:33:07.409Z,14.60
2018-11-02T19:35:40.503Z,14.40
2018-11-02T19:38:09.643Z,13.90
2018-11-02T19:40:38.722Z,16.13
2018-11-02T19:43:07.758Z,14.13
2018-11-02T19:45:37.144Z,16.03
2018-11-02T19:48:06.853Z,17.00
2018-11-02T19:50:35.725Z,17.83
2018-11-02T19:53:04.382Z,15.80
2018-11-02T19:55:33.280Z,13.37
2018-11-02T19:58:02.034Z,12.23
2018-11-02T20:00:30.712Z,13.50
2018-11-02T20:02:59.602Z,12.80
2018-11-02T20:05:28.489Z,12.40
2018-11-02T20:07:57.535Z,10.80
2018-11-02T20:10:26.439Z,12.73
2018-11-02T20:12:55.425Z,13.27
2018-11-02T20:15:24.389Z,12.20
2018-11-02T20:17:53.385Z,11.00
2018-11-02T20:20:22.323Z,12.80
2018-11-02T20:22:51.062Z,13.50
2018-11-02T20:25:19.667Z,12.80
2018-11-02T20:27:48.498Z,15.70
2018-11-02T20:30:19.954Z,18.40
2018-11-02T20:32:49.016Z,29.00
2018-11-02T20:35:17.898Z,24.10
2018-11-02T20:37:46.897Z,24.90
2018-11-02T20:40:17.418Z,23.23
2018-11-02T20:42:46.351Z,17.12
2018-11-02T20:45:15.683Z,16.60
2018-11-02T20:47:49.636Z,21.30
2018-11-02T20:50:18.417Z,17.90
2018-11-02T20:52:47.593Z,14.70
2018-11-02T20:55:16.773Z,14.10
2018-11-02T20:57:45.603Z,16.83
2018-11-02T21:00:22.275Z,17.50
2018-11-02T21:02:51.112Z,14.77
2018-11-02T21:05:21.293Z,11.90
2018-11-02T21:07:50.712Z,14.00
2018-11-02T21:10:20.444Z,13.50
2018-11-02T21:12:49.207Z,13.40
2018-11-02T21:15:21.598Z,13.63
2018-11-02T21:17:51.042Z,11.70
2018-11-02T21:20:20.920Z,13.18
2018-11-02T21:22:49.959Z,12.60
2018-11-02T21:25:18.649Z,12.43
2018-11-02T21:27:47.840Z,11.90
2018-11-02T21:30:18.972Z,12.00
2018-11-02T21:32:48.373Z,11.70
2018-11-02T21:35:17.723Z,11.80
2018-11-02T21:37:46.723Z,11.90
2018-11-02T21:40:16.793Z,12.27
2018-11-02T21:42:45.932Z,11.40
2018-11-02T21:45:15.842Z,13.17
2018-11-02T21:47:45.088Z,11.27
2018-11-02T21:50:14.326Z,12.80
2018-11-02T21:52:43.402Z,12.73
2018-11-02T21:55:12.203Z,12.83
2018-11-02T21:57:40.995Z,13.83
2018-11-02T22:00:11.977Z,12.90
2018-11-02T22:02:41.069Z,12.40
2018-11-02T22:05:11.306Z,13.03
2018-11-02T22:07:40.097Z,12.67
2018-11-02T22:10:10.141Z,12.20
2018-11-02T22:12:39.410Z,12.03
2018-11-02T22:15:09.178Z,12.47
2018-11-02T22:17:38.352Z,11.63
2018-11-02T22:20:08.673Z,12.03
2018-11-02T22:22:37.583Z,11.90
2018-11-02T22:25:07.288Z,12.23
2018-11-02T22:27:36.187Z,11.93
2018-11-02T22:30:05.605Z,11.73
2018-11-02T22:32:34.205Z,10.80
2018-11-02T22:35:03.003Z,11.87
2018-11-02T22:37:31.551Z,12.43
2018-11-02T22:40:00.212Z,12.27
2018-11-02T22:42:29.167Z,12.67
2018-11-02T22:44:57.797Z,12.70
2018-11-02T22:47:26.435Z,13.27
2018-11-02T22:49:55.091Z,12.58
2018-11-02T22:52:23.989Z,13.83
2018-11-02T22:54:52.728Z,13.70
2018-11-02T22:57:21.496Z,14.03
2018-11-02T22:59:50.092Z,14.00
2018-11-02T23:02:19.236Z,12.70
2018-11-02T23:04:48.017Z,14.53
2018-11-02T23:07:16.750Z,13.80
2018-11-02T23:09:45.835Z,14.33
2018-11-02T23:12:14.598Z,14.47
2018-11-02T23:14:43.285Z,15.47
2018-11-02T23:17:11.988Z,14.90
2018-11-02T23:19:40.699Z,13.63
2018-11-02T23:22:09.778Z,14.07
2018-11-02T23:24:38.353Z,13.50
2018-11-02T23:27:07.122Z,14.33
2018-11-02T23:29:35.931Z,15.47
2018-11-02T23:32:04.451Z,15.45
2018-11-02T23:34:33.065Z,14.00
2018-11-02T23:37:01.845Z,14.70
2018-11-02T23:39:30.457Z,14.93
2018-11-02T23:41:59.173Z,15.63
2018-11-02T23:44:28.017Z,14.73
2018-11-02T23:46:56.704Z,15.47
2018-11-02T23:49:25.341Z,14.60
2018-11-02T23:51:54.347Z,15.70
2018-11-02T23:54:23.141Z,15.68
2018-11-02T23:56:52.067Z,15.90
2018-11-02T23:59:20.860Z,15.53
